sensor_id;sensor_type;location;lat;lon;timestamp;P1;durP1;ratioP1;P2;durP2;ratioP2
20110;SDS011;10216;42.658;23.248;2023-03-23T00:41:03;8.77;;;6.53;;
20110;SDS011;10216;42.658;23.248;2023-03-23T00:43:29;9.77;;;6.17;;
20110;SDS011;10216;42.658;23.248;2023-03-23T00:45:55;10.67;;;6.50;;
20110;SDS011;10216;42.658;23.248;2023-03-23T00:48:22;8.97;;;7.07;;
20110;SDS011;10216;42.658;23.248;2023-03-23T00:50:47;10.57;;;7.10;;
20110;SDS011;10216;42.658;23.248;2023-03-23T00:53:13;7.80;;;6.47;;
20110;SDS011;10216;42.658;23.248;2023-03-23T00:55:40;8.97;;;6.57;;
20110;SDS011;10216;42.658;23.248;2023-03-23T00:58:05;9.03;;;6.30;;
20110;SDS011;10216;42.658;23.248;2023-03-23T01:00:30;7.53;;;6.07;;
20110;SDS011;10216;42.658;23.248;2023-03-23T01:02:55;6.70;;;5.63;;
20110;SDS011;10216;42.658;23.248;2023-03-23T01:05:21;7.27;;;6.00;;
20110;SDS011;10216;42.658;23.248;2023-03-23T01:07:46;9.93;;;6.40;;
20110;SDS011;10216;42.658;23.248;2023-03-23T01:10:12;9.27;;;5.97;;
20110;SDS011;10216;42.658;23.248;2023-03-23T01:12:41;8.17;;;6.60;;
20110;SDS011;10216;42.658;23.248;2023-03-23T01:15:06;7.03;;;5.87;;
20110;SDS011;10216;42.658;23.248;2023-03-23T01:17:31;9.03;;;6.83;;
20110;SDS011;10216;42.658;23.248;2023-03-23T01:19:57;9.00;;;7.03;;
20110;SDS011;10216;42.658;23.248;2023-03-23T01:22:22;9.67;;;6.90;;
20110;SDS011;10216;42.658;23.248;2023-03-23T01:24:47;10.93;;;8.10;;
20110;SDS011;10216;42.658;23.248;2023-03-23T01:27:13;13.23;;;8.63;;
20110;SDS011;10216;42.658;23.248;2023-03-23T01:29:38;11.70;;;8.83;;
20110;SDS011;10216;42.658;23.248;2023-03-23T01:32:04;12.97;;;9.83;;
20110;SDS011;10216;42.658;23.248;2023-03-23T01:34:29;13.70;;;9.23;;
20110;SDS011;10216;42.658;23.248;2023-03-23T01:36:56;15.03;;;11.07;;
20110;SDS011;10216;42.658;23.248;2023-03-23T01:39:24;16.87;;;11.00;;
20110;SDS011;10216;42.658;23.248;2023-03-23T01:41:49;14.77;;;10.23;;
20110;SDS011;10216;42.658;23.248;2023-03-23T01:46:45;16.73;;;11.43;;
20110;SDS011;10216;42.658;23.248;2023-03-23T01:49:32;15.63;;;11.67;;
20110;SDS011;10216;42.658;23.248;2023-03-23T01:51:57;17.87;;;10.80;;
20110;SDS011;10216;42.658;23.248;2023-03-23T01:54:24;15.87;;;10.37;;
20110;SDS011;10216;42.658;23.248;2023-03-23T01:56:53;16.77;;;11.47;;
20110;SDS011;10216;42.658;23.248;2023-03-23T01:59:19;16.07;;;11.20;;
20110;SDS011;10216;42.658;23.248;2023-03-23T02:01:45;16.83;;;10.50;;
20110;SDS011;10216;42.658;23.248;2023-03-23T02:04:14;17.53;;;9.07;;
20110;SDS011;10216;42.658;23.248;2023-03-23T02:06:41;13.87;;;9.20;;
20110;SDS011;10216;42.658;23.248;2023-03-23T02:09:07;13.30;;;9.67;;
20110;SDS011;10216;42.658;23.248;2023-03-23T02:11:33;18.10;;;12.03;;
20110;SDS011;10216;42.658;23.248;2023-03-23T02:13:58;19.03;;;12.83;;
20110;SDS011;10216;42.658;23.248;2023-03-23T02:19:05;23.53;;;14.03;;
20110;SDS011;10216;42.658;23.248;2023-03-23T02:26:49;17.83;;;12.87;;
20110;SDS011;10216;42.658;23.248;2023-03-23T02:29:37;17.20;;;11.87;;
20110;SDS011;10216;42.658;23.248;2023-03-23T02:32:26;17.30;;;12.67;;
20110;SDS011;10216;42.658;23.248;2023-03-23T02:35:01;15.87;;;11.83;;
20110;SDS011;10216;42.658;23.248;2023-03-23T02:37:44;16.57;;;11.90;;
20110;SDS011;10216;42.658;23.248;2023-03-23T02:40:21;17.07;;;12.27;;
20110;SDS011;10216;42.658;23.248;2023-03-23T02:42:50;21.60;;;12.53;;
20110;SDS011;10216;42.658;23.248;2023-03-23T02:45:16;21.73;;;12.80;;
20110;SDS011;10216;42.658;23.248;2023-03-23T02:47:42;17.77;;;12.50;;
20110;SDS011;10216;42.658;23.248;2023-03-23T02:50:09;17.07;;;11.87;;
20110;SDS011;10216;42.658;23.248;2023-03-23T02:52:35;19.67;;;13.37;;
20110;SDS011;10216;42.658;23.248;2023-03-23T02:55:01;18.17;;;12.80;;
20110;SDS011;10216;42.658;23.248;2023-03-23T02:57:27;16.53;;;11.40;;
20110;SDS011;10216;42.658;23.248;2023-03-23T02:59:52;19.20;;;12.50;;
20110;SDS011;10216;42.658;23.248;2023-03-23T03:02:28;19.60;;;12.67;;
20110;SDS011;10216;42.658;23.248;2023-03-23T03:09:52;18.87;;;11.63;;
20110;SDS011;10216;42.658;23.248;2023-03-23T03:12:24;16.17;;;10.30;;
20110;SDS011;10216;42.658;23.248;2023-03-23T03:15:02;13.63;;;10.40;;
20110;SDS011;10216;42.658;23.248;2023-03-23T03:17:32;14.13;;;10.20;;
20110;SDS011;10216;42.658;23.248;2023-03-23T03:20:02;25.93;;;17.23;;
20110;SDS011;10216;42.658;23.248;2023-03-23T03:22:35;20.00;;;13.70;;
20110;SDS011;10216;42.658;23.248;2023-03-23T03:25:02;35.17;;;23.97;;
20110;SDS011;10216;42.658;23.248;2023-03-23T03:27:27;27.07;;;17.40;;
20110;SDS011;10216;42.658;23.248;2023-03-23T03:29:54;25.87;;;18.27;;
20110;SDS011;10216;42.658;23.248;2023-03-23T03:32:22;28.67;;;17.30;;
20110;SDS011;10216;42.658;23.248;2023-03-23T03:34:49;29.47;;;18.07;;
20110;SDS011;10216;42.658;23.248;2023-03-23T03:37:15;27.30;;;17.40;;
20110;SDS011;10216;42.658;23.248;2023-03-23T03:39:41;30.13;;;18.10;;
20110;SDS011;10216;42.658;23.248;2023-03-23T03:42:06;26.43;;;17.40;;
20110;SDS011;10216;42.658;23.248;2023-03-23T03:44:32;26.37;;;17.17;;
20110;SDS011;10216;42.658;23.248;2023-03-23T03:46:57;28.07;;;17.97;;
20110;SDS011;10216;42.658;23.248;2023-03-23T03:49:22;23.40;;;16.70;;
20110;SDS011;10216;42.658;23.248;2023-03-23T03:51:48;25.10;;;16.30;;
20110;SDS011;10216;42.658;23.248;2023-03-23T03:54:13;25.37;;;16.70;;
20110;SDS011;10216;42.658;23.248;2023-03-23T03:56:38;28.10;;;17.77;;
20110;SDS011;10216;42.658;23.248;2023-03-23T03:59:06;25.73;;;17.13;;
20110;SDS011;10216;42.658;23.248;2023-03-23T04:01:33;30.90;;;17.70;;
20110;SDS011;10216;42.658;23.248;2023-03-23T04:03:58;27.87;;;17.70;;
20110;SDS011;10216;42.658;23.248;2023-03-23T04:06:23;23.17;;;15.70;;
20110;SDS011;10216;42.658;23.248;2023-03-23T04:08:52;26.53;;;16.93;;
20110;SDS011;10216;42.658;23.248;2023-03-23T04:11:18;25.57;;;16.33;;
20110;SDS011;10216;42.658;23.248;2023-03-23T04:13:43;25.27;;;15.83;;
20110;SDS011;10216;42.658;23.248;2023-03-23T04:16:08;26.80;;;15.77;;
20110;SDS011;10216;42.658;23.248;2023-03-23T04:18:34;27.50;;;15.17;;
20110;SDS011;10216;42.658;23.248;2023-03-23T04:20:59;29.97;;;16.80;;
20110;SDS011;10216;42.658;23.248;2023-03-23T04:23:26;24.73;;;16.30;;
20110;SDS011;10216;42.658;23.248;2023-03-23T04:25:52;28.07;;;17.73;;
20110;SDS011;10216;42.658;23.248;2023-03-23T04:28:21;28.37;;;17.70;;
20110;SDS011;10216;42.658;23.248;2023-03-23T04:30:51;30.43;;;15.93;;
20110;SDS011;10216;42.658;23.248;2023-03-23T04:33:18;21.33;;;14.13;;
20110;SDS011;10216;42.658;23.248;2023-03-23T04:35:43;23.37;;;14.60;;
20110;SDS011;10216;42.658;23.248;2023-03-23T04:38:10;18.67;;;13.20;;
20110;SDS011;10216;42.658;23.248;2023-03-23T04:40:36;40.63;;;22.53;;
20110;SDS011;10216;42.658;23.248;2023-03-23T04:43:02;50.47;;;30.33;;
20110;SDS011;10216;42.658;23.248;2023-03-23T04:45:31;27.00;;;15.13;;
20110;SDS011;10216;42.658;23.248;2023-03-23T04:47:56;20.77;;;11.53;;
20110;SDS011;10216;42.658;23.248;2023-03-23T04:50:27;28.23;;;16.43;;
20110;SDS011;10216;42.658;23.248;2023-03-23T04:52:52;26.33;;;17.70;;
20110;SDS011;10216;42.658;23.248;2023-03-23T04:55:19;26.73;;;16.70;;
20110;SDS011;10216;42.658;23.248;2023-03-23T04:57:44;23.97;;;16.77;;
20110;SDS011;10216;42.658;23.248;2023-03-23T05:00:10;29.77;;;16.27;;
20110;SDS011;10216;42.658;23.248;2023-03-23T05:02:41;27.17;;;16.77;;
20110;SDS011;10216;42.658;23.248;2023-03-23T05:05:07;23.73;;;15.40;;
20110;SDS011;10216;42.658;23.248;2023-03-23T05:07:32;21.73;;;14.67;;
20110;SDS011;10216;42.658;23.248;2023-03-23T05:09:58;22.40;;;15.60;;
20110;SDS011;10216;42.658;23.248;2023-03-23T05:12:23;24.60;;;15.80;;
20110;SDS011;10216;42.658;23.248;2023-03-23T05:14:48;22.53;;;15.40;;
20110;SDS011;10216;42.658;23.248;2023-03-23T05:17:14;33.33;;;17.90;;
20110;SDS011;10216;42.658;23.248;2023-03-23T05:19:42;32.63;;;19.80;;
20110;SDS011;10216;42.658;23.248;2023-03-23T05:22:08;32.17;;;21.50;;
20110;SDS011;10216;42.658;23.248;2023-03-23T05:24:34;37.73;;;22.57;;
20110;SDS011;10216;42.658;23.248;2023-03-23T05:26:59;33.37;;;21.33;;
20110;SDS011;10216;42.658;23.248;2023-03-23T05:29:25;35.83;;;22.37;;
20110;SDS011;10216;42.658;23.248;2023-03-23T05:31:52;33.57;;;22.43;;
20110;SDS011;10216;42.658;23.248;2023-03-23T05:34:18;37.83;;;23.17;;
20110;SDS011;10216;42.658;23.248;2023-03-23T05:36:43;41.10;;;23.97;;
20110;SDS011;10216;42.658;23.248;2023-03-23T05:39:09;41.70;;;24.70;;
20110;SDS011;10216;42.658;23.248;2023-03-23T05:41:35;45.20;;;27.70;;
20110;SDS011;10216;42.658;23.248;2023-03-23T05:44:00;41.40;;;25.83;;
20110;SDS011;10216;42.658;23.248;2023-03-23T05:46:28;52.70;;;28.27;;
20110;SDS011;10216;42.658;23.248;2023-03-23T05:48:53;44.27;;;26.73;;
20110;SDS011;10216;42.658;23.248;2023-03-23T05:51:18;49.53;;;29.83;;
20110;SDS011;10216;42.658;23.248;2023-03-23T05:53:44;50.53;;;29.83;;
20110;SDS011;10216;42.658;23.248;2023-03-23T05:56:10;52.93;;;28.33;;
20110;SDS011;10216;42.658;23.248;2023-03-23T05:58:36;54.03;;;30.93;;
20110;SDS011;10216;42.658;23.248;2023-03-23T06:01:01;53.27;;;31.33;;
20110;SDS011;10216;42.658;23.248;2023-03-23T06:03:30;56.47;;;31.87;;
20110;SDS011;10216;42.658;23.248;2023-03-23T06:05:55;75.40;;;35.97;;
20110;SDS011;10216;42.658;23.248;2023-03-23T06:08:21;73.23;;;35.53;;
20110;SDS011;10216;42.658;23.248;2023-03-23T06:10:47;71.00;;;34.27;;
20110;SDS011;10216;42.658;23.248;2023-03-23T06:13:13;66.17;;;35.70;;
20110;SDS011;10216;42.658;23.248;2023-03-23T06:15:38;61.57;;;34.50;;
20110;SDS011;10216;42.658;23.248;2023-03-23T06:18:04;70.83;;;34.60;;
20110;SDS011;10216;42.658;23.248;2023-03-23T06:20:30;56.90;;;32.27;;
20110;SDS011;10216;42.658;23.248;2023-03-23T06:22:55;70.17;;;33.57;;
20110;SDS011;10216;42.658;23.248;2023-03-23T06:25:21;61.40;;;31.80;;
20110;SDS011;10216;42.658;23.248;2023-03-23T06:27:47;57.80;;;31.07;;
20110;SDS011;10216;42.658;23.248;2023-03-23T06:30:13;53.00;;;31.20;;
20110;SDS011;10216;42.658;23.248;2023-03-23T06:32:39;55.73;;;31.97;;
20110;SDS011;10216;42.658;23.248;2023-03-23T06:35:06;63.60;;;37.97;;
20110;SDS011;10216;42.658;23.248;2023-03-23T06:37:34;73.67;;;42.90;;
20110;SDS011;10216;42.658;23.248;2023-03-23T06:40:00;75.00;;;44.00;;
20110;SDS011;10216;42.658;23.248;2023-03-23T06:42:25;62.37;;;41.17;;
20110;SDS011;10216;42.658;23.248;2023-03-23T06:44:51;64.17;;;41.60;;
20110;SDS011;10216;42.658;23.248;2023-03-23T06:47:16;64.93;;;39.93;;
20110;SDS011;10216;42.658;23.248;2023-03-23T06:49:41;65.40;;;39.37;;
20110;SDS011;10216;42.658;23.248;2023-03-23T06:52:07;59.27;;;38.20;;
20110;SDS011;10216;42.658;23.248;2023-03-23T06:54:33;73.93;;;43.80;;
20110;SDS011;10216;42.658;23.248;2023-03-23T06:56:58;67.33;;;43.77;;
20110;SDS011;10216;42.658;23.248;2023-03-23T06:59:23;62.23;;;42.50;;
20110;SDS011;10216;42.658;23.248;2023-03-23T07:01:48;64.33;;;41.73;;
20110;SDS011;10216;42.658;23.248;2023-03-23T07:04:14;60.43;;;41.57;;
20110;SDS011;10216;42.658;23.248;2023-03-23T07:06:39;70.53;;;48.77;;
20110;SDS011;10216;42.658;23.248;2023-03-23T07:09:05;71.07;;;50.37;;
20110;SDS011;10216;42.658;23.248;2023-03-23T07:11:30;54.73;;;40.60;;
20110;SDS011;10216;42.658;23.248;2023-03-23T07:13:56;56.80;;;41.20;;
20110;SDS011;10216;42.658;23.248;2023-03-23T07:16:21;51.73;;;38.87;;
20110;SDS011;10216;42.658;23.248;2023-03-23T07:18:47;50.73;;;37.73;;
20110;SDS011;10216;42.658;23.248;2023-03-23T07:21:13;48.60;;;35.97;;
20110;SDS011;10216;42.658;23.248;2023-03-23T07:23:38;43.43;;;35.47;;
20110;SDS011;10216;42.658;23.248;2023-03-23T07:26:03;45.57;;;33.10;;
20110;SDS011;10216;42.658;23.248;2023-03-23T07:28:29;36.10;;;30.70;;
20110;SDS011;10216;42.658;23.248;2023-03-23T07:30:54;37.27;;;29.37;;
20110;SDS011;10216;42.658;23.248;2023-03-23T07:33:19;38.47;;;30.20;;
20110;SDS011;10216;42.658;23.248;2023-03-23T07:35:45;42.27;;;30.47;;
20110;SDS011;10216;42.658;23.248;2023-03-23T07:38:10;36.63;;;29.80;;
20110;SDS011;10216;42.658;23.248;2023-03-23T07:40:38;35.10;;;29.37;;
20110;SDS011;10216;42.658;23.248;2023-03-23T07:43:03;41.87;;;31.07;;
20110;SDS011;10216;42.658;23.248;2023-03-23T07:45:29;35.23;;;29.77;;
20110;SDS011;10216;42.658;23.248;2023-03-23T07:47:55;43.60;;;31.40;;
20110;SDS011;10216;42.658;23.248;2023-03-23T07:50:21;36.47;;;29.67;;
20110;SDS011;10216;42.658;23.248;2023-03-23T07:52:48;38.90;;;28.27;;
20110;SDS011;10216;42.658;23.248;2023-03-23T07:55:14;33.77;;;27.50;;
20110;SDS011;10216;42.658;23.248;2023-03-23T08:06:50;30.57;;;24.90;;
20110;SDS011;10216;42.658;23.248;2023-03-23T08:09:16;31.57;;;25.90;;
20110;SDS011;10216;42.658;23.248;2023-03-23T08:11:41;28.53;;;24.87;;
20110;SDS011;10216;42.658;23.248;2023-03-23T08:14:06;36.20;;;25.97;;
20110;SDS011;10216;42.658;23.248;2023-03-23T08:16:32;28.47;;;23.73;;
20110;SDS011;10216;42.658;23.248;2023-03-23T08:18:57;32.00;;;23.57;;
20110;SDS011;10216;42.658;23.248;2023-03-23T08:21:22;29.07;;;23.87;;
20110;SDS011;10216;42.658;23.248;2023-03-23T08:23:50;30.27;;;22.93;;
20110;SDS011;10216;42.658;23.248;2023-03-23T08:26:15;26.43;;;21.63;;
20110;SDS011;10216;42.658;23.248;2023-03-23T08:28:42;36.07;;;26.43;;
20110;SDS011;10216;42.658;23.248;2023-03-23T08:31:14;31.60;;;23.93;;
20110;SDS011;10216;42.658;23.248;2023-03-23T08:33:40;20.80;;;18.10;;
20110;SDS011;10216;42.658;23.248;2023-03-23T08:36:06;19.23;;;17.10;;
20110;SDS011;10216;42.658;23.248;2023-03-23T08:38:32;17.00;;;14.60;;
20110;SDS011;10216;42.658;23.248;2023-03-23T08:40:59;15.40;;;13.80;;
20110;SDS011;10216;42.658;23.248;2023-03-23T08:43:24;11.30;;;9.83;;
20110;SDS011;10216;42.658;23.248;2023-03-23T08:45:50;11.03;;;8.73;;
20110;SDS011;10216;42.658;23.248;2023-03-23T08:48:15;10.70;;;8.80;;
20110;SDS011;10216;42.658;23.248;2023-03-23T08:50:40;10.50;;;9.47;;
20110;SDS011;10216;42.658;23.248;2023-03-23T08:53:05;9.53;;;7.90;;
20110;SDS011;10216;42.658;23.248;2023-03-23T08:55:32;9.40;;;7.63;;
20110;SDS011;10216;42.658;23.248;2023-03-23T08:57:57;11.23;;;10.10;;
20110;SDS011;10216;42.658;23.248;2023-03-23T09:00:22;13.37;;;11.10;;
20110;SDS011;10216;42.658;23.248;2023-03-23T09:02:50;10.50;;;9.47;;
20110;SDS011;10216;42.658;23.248;2023-03-23T09:05:16;8.80;;;7.90;;
20110;SDS011;10216;42.658;23.248;2023-03-23T09:07:42;11.60;;;9.80;;
20110;SDS011;10216;42.658;23.248;2023-03-23T09:10:08;11.40;;;8.87;;
20110;SDS011;10216;42.658;23.248;2023-03-23T09:12:34;12.07;;;9.10;;
20110;SDS011;10216;42.658;23.248;2023-03-23T09:15:00;11.67;;;9.40;;
20110;SDS011;10216;42.658;23.248;2023-03-23T09:17:30;11.60;;;10.40;;
20110;SDS011;10216;42.658;23.248;2023-03-23T09:19:56;16.17;;;12.80;;
20110;SDS011;10216;42.658;23.248;2023-03-23T09:22:21;16.87;;;14.50;;
20110;SDS011;10216;42.658;23.248;2023-03-23T09:24:48;10.63;;;9.13;;
20110;SDS011;10216;42.658;23.248;2023-03-23T09:27:13;8.17;;;7.23;;
20110;SDS011;10216;42.658;23.248;2023-03-23T09:29:39;9.07;;;8.13;;
20110;SDS011;10216;42.658;23.248;2023-03-23T09:32:05;9.47;;;8.37;;
20110;SDS011;10216;42.658;23.248;2023-03-23T09:34:32;9.70;;;8.67;;
20110;SDS011;10216;42.658;23.248;2023-03-23T09:37:00;10.50;;;9.10;;
20110;SDS011;10216;42.658;23.248;2023-03-23T09:39:29;10.87;;;8.87;;
20110;SDS011;10216;42.658;23.248;2023-03-23T09:45:15;10.43;;;7.93;;
20110;SDS011;10216;42.658;23.248;2023-03-23T09:50:08;10.43;;;8.20;;
20110;SDS011;10216;42.658;23.248;2023-03-23T09:55:13;9.13;;;8.23;;
20110;SDS011;10216;42.658;23.248;2023-03-23T09:58:02;9.40;;;8.20;;
20110;SDS011;10216;42.658;23.248;2023-03-23T10:00:35;9.33;;;8.47;;
20110;SDS011;10216;42.658;23.248;2023-03-23T10:05:36;9.40;;;8.33;;
20110;SDS011;10216;42.658;23.248;2023-03-23T10:08:05;9.60;;;8.60;;
20110;SDS011;10216;42.658;23.248;2023-03-23T10:10:39;9.70;;;8.70;;
20110;SDS011;10216;42.658;23.248;2023-03-23T10:13:11;11.03;;;8.83;;
20110;SDS011;10216;42.658;23.248;2023-03-23T10:15:41;10.17;;;9.13;;
20110;SDS011;10216;42.658;23.248;2023-03-23T10:20:49;9.87;;;8.63;;
20110;SDS011;10216;42.658;23.248;2023-03-23T10:28:32;8.97;;;8.17;;
20110;SDS011;10216;42.658;23.248;2023-03-23T10:30:59;10.53;;;8.00;;
20110;SDS011;10216;42.658;23.248;2023-03-23T10:36:10;7.97;;;7.17;;
20110;SDS011;10216;42.658;23.248;2023-03-23T10:38:39;8.27;;;7.13;;
20110;SDS011;10216;42.658;23.248;2023-03-23T10:41:15;7.37;;;6.67;;
20110;SDS011;10216;42.658;23.248;2023-03-23T10:43:41;8.03;;;7.33;;
20110;SDS011;10216;42.658;23.248;2023-03-23T10:48:53;8.20;;;7.40;;
20110;SDS011;10216;42.658;23.248;2023-03-23T10:51:20;8.50;;;7.60;;
20110;SDS011;10216;42.658;23.248;2023-03-23T10:53:51;8.33;;;6.50;;
20110;SDS011;10216;42.658;23.248;2023-03-23T10:56:25;8.03;;;7.23;;
20110;SDS011;10216;42.658;23.248;2023-03-23T10:58:50;7.90;;;7.13;;
20110;SDS011;10216;42.658;23.248;2023-03-23T11:01:17;9.70;;;7.40;;
20110;SDS011;10216;42.658;23.248;2023-03-23T11:03:45;8.70;;;7.90;;
20110;SDS011;10216;42.658;23.248;2023-03-23T11:06:19;10.30;;;8.47;;
20110;SDS011;10216;42.658;23.248;2023-03-23T11:08:50;8.57;;;7.43;;
20110;SDS011;10216;42.658;23.248;2023-03-23T11:11:21;8.13;;;7.40;;
20110;SDS011;10216;42.658;23.248;2023-03-23T11:13:50;7.80;;;7.10;;
20110;SDS011;10216;42.658;23.248;2023-03-23T11:16:42;7.67;;;6.83;;
20110;SDS011;10216;42.658;23.248;2023-03-23T11:19:13;8.03;;;7.27;;
20110;SDS011;10216;42.658;23.248;2023-03-23T11:21:39;8.13;;;7.33;;
20110;SDS011;10216;42.658;23.248;2023-03-23T11:24:04;8.07;;;7.33;;
20110;SDS011;10216;42.658;23.248;2023-03-23T11:26:31;7.63;;;6.93;;
20110;SDS011;10216;42.658;23.248;2023-03-23T11:29:03;8.43;;;7.63;;
20110;SDS011;10216;42.658;23.248;2023-03-23T11:31:32;7.70;;;7.00;;
20110;SDS011;10216;42.658;23.248;2023-03-23T11:33:59;8.23;;;7.40;;
20110;SDS011;10216;42.658;23.248;2023-03-23T11:36:29;7.70;;;6.95;;
20110;SDS011;10216;42.658;23.248;2023-03-23T11:38:55;8.70;;;7.82;;
20110;SDS011;10216;42.658;23.248;2023-03-23T11:41:22;8.13;;;7.32;;
20110;SDS011;10216;42.658;23.248;2023-03-23T11:43:50;8.82;;;7.07;;
20110;SDS011;10216;42.658;23.248;2023-03-23T11:49:05;9.52;;;8.70;;
20110;SDS011;10216;42.658;23.248;2023-03-23T11:51:38;7.57;;;6.78;;
20110;SDS011;10216;42.658;23.248;2023-03-23T11:54:24;8.88;;;8.07;;
20110;SDS011;10216;42.658;23.248;2023-03-23T11:56:52;16.50;;;14.90;;
20110;SDS011;10216;42.658;23.248;2023-03-23T11:59:18;7.88;;;7.07;;
20110;SDS011;10216;42.658;23.248;2023-03-23T12:06:59;8.32;;;7.60;;
20110;SDS011;10216;42.658;23.248;2023-03-23T12:16:58;7.43;;;6.75;;
20110;SDS011;10216;42.658;23.248;2023-03-23T12:19:41;7.78;;;7.07;;
20110;SDS011;10216;42.658;23.248;2023-03-23T12:32:50;7.78;;;6.75;;
20110;SDS011;10216;42.658;23.248;2023-03-23T12:46:22;8.43;;;5.97;;
20110;SDS011;10216;42.658;23.248;2023-03-23T12:48:52;11.82;;;10.50;;
20110;SDS011;10216;42.658;23.248;2023-03-23T12:54:14;7.22;;;6.38;;
20110;SDS011;10216;42.658;23.248;2023-03-23T13:02:16;7.78;;;4.93;;
20110;SDS011;10216;42.658;23.248;2023-03-23T13:04:45;6.00;;;5.50;;
20110;SDS011;10216;42.658;23.248;2023-03-23T13:07:14;6.05;;;5.50;;
20110;SDS011;10216;42.658;23.248;2023-03-23T13:10:24;6.97;;;5.82;;
20110;SDS011;10216;42.658;23.248;2023-03-23T13:12:29;5.97;;;5.47;;
20110;SDS011;10216;42.658;23.248;2023-03-23T13:15:18;5.80;;;5.22;;
20110;SDS011;10216;42.658;23.248;2023-03-23T13:20:48;8.52;;;6.38;;
20110;SDS011;10216;42.658;23.248;2023-03-23T13:28:02;6.30;;;5.63;;
20110;SDS011;10216;42.658;23.248;2023-03-23T13:30:28;6.10;;;5.50;;
20110;SDS011;10216;42.658;23.248;2023-03-23T13:33:06;5.90;;;5.28;;
20110;SDS011;10216;42.658;23.248;2023-03-23T13:35:36;5.80;;;5.30;;
20110;SDS011;10216;42.658;23.248;2023-03-23T13:38:10;6.38;;;5.38;;
20110;SDS011;10216;42.658;23.248;2023-03-23T13:40:40;5.30;;;4.80;;
20110;SDS011;10216;42.658;23.248;2023-03-23T13:43:07;4.78;;;4.38;;
20110;SDS011;10216;42.658;23.248;2023-03-23T13:45:46;5.38;;;4.90;;
20110;SDS011;10216;42.658;23.248;2023-03-23T13:50:52;5.87;;;4.23;;
20110;SDS011;10216;42.658;23.248;2023-03-23T13:53:24;5.40;;;4.90;;
20110;SDS011;10216;42.658;23.248;2023-03-23T13:56:02;5.80;;;5.27;;
20110;SDS011;10216;42.658;23.248;2023-03-23T13:58:28;5.67;;;5.17;;
20110;SDS011;10216;42.658;23.248;2023-03-23T14:03:40;8.23;;;5.73;;
20110;SDS011;10216;42.658;23.248;2023-03-23T14:06:27;7.00;;;6.33;;
20110;SDS011;10216;42.658;23.248;2023-03-23T14:08:53;7.37;;;6.67;;
20110;SDS011;10216;42.658;23.248;2023-03-23T14:11:20;22.37;;;16.70;;
20110;SDS011;10216;42.658;23.248;2023-03-23T14:13:50;10.03;;;9.03;;
20110;SDS011;10216;42.658;23.248;2023-03-23T14:16:23;13.83;;;11.07;;
20110;SDS011;10216;42.658;23.248;2023-03-23T14:18:55;10.97;;;8.90;;
20110;SDS011;10216;42.658;23.248;2023-03-23T14:21:22;14.37;;;11.60;;
20110;SDS011;10216;42.658;23.248;2023-03-23T14:23:47;7.63;;;6.00;;
20110;SDS011;10216;42.658;23.248;2023-03-23T14:26:15;8.57;;;7.40;;
20110;SDS011;10216;42.658;23.248;2023-03-23T14:28:42;11.00;;;7.23;;
20110;SDS011;10216;42.658;23.248;2023-03-23T14:31:26;5.60;;;5.10;;
20110;SDS011;10216;42.658;23.248;2023-03-23T14:33:53;6.63;;;5.93;;
20110;SDS011;10216;42.658;23.248;2023-03-23T14:36:23;9.07;;;6.53;;
20110;SDS011;10216;42.658;23.248;2023-03-23T14:38:55;8.53;;;7.47;;
20110;SDS011;10216;42.658;23.248;2023-03-23T14:41:21;10.00;;;7.40;;
20110;SDS011;10216;42.658;23.248;2023-03-23T14:43:47;11.97;;;7.03;;
20110;SDS011;10216;42.658;23.248;2023-03-23T14:46:12;10.03;;;8.47;;
20110;SDS011;10216;42.658;23.248;2023-03-23T14:48:38;11.40;;;9.07;;
20110;SDS011;10216;42.658;23.248;2023-03-23T14:51:04;19.90;;;14.07;;
20110;SDS011;10216;42.658;23.248;2023-03-23T14:53:33;11.37;;;8.60;;
20110;SDS011;10216;42.658;23.248;2023-03-23T14:56:01;11.70;;;8.43;;
20110;SDS011;10216;42.658;23.248;2023-03-23T14:58:28;10.57;;;8.20;;
20110;SDS011;10216;42.658;23.248;2023-03-23T15:03:32;8.03;;;7.20;;
20110;SDS011;10216;42.658;23.248;2023-03-23T15:05:59;11.50;;;8.50;;
20110;SDS011;10216;42.658;23.248;2023-03-23T15:08:29;7.13;;;6.40;;
20110;SDS011;10216;42.658;23.248;2023-03-23T15:11:06;9.03;;;8.00;;
20110;SDS011;10216;42.658;23.248;2023-03-23T15:13:32;7.93;;;7.13;;
20110;SDS011;10216;42.658;23.248;2023-03-23T15:16:02;8.03;;;6.53;;
20110;SDS011;10216;42.658;23.248;2023-03-23T15:18:29;9.50;;;8.13;;
20110;SDS011;10216;42.658;23.248;2023-03-23T15:20:56;9.00;;;7.03;;
20110;SDS011;10216;42.658;23.248;2023-03-23T15:23:28;6.47;;;5.87;;
20110;SDS011;10216;42.658;23.248;2023-03-23T15:25:54;7.23;;;6.27;;
20110;SDS011;10216;42.658;23.248;2023-03-23T15:28:21;8.87;;;6.10;;
20110;SDS011;10216;42.658;23.248;2023-03-23T15:30:53;9.37;;;7.47;;
20110;SDS011;10216;42.658;23.248;2023-03-23T15:33:19;11.30;;;7.70;;
20110;SDS011;10216;42.658;23.248;2023-03-23T15:35:51;10.47;;;9.20;;
20110;SDS011;10216;42.658;23.248;2023-03-23T15:38:19;10.00;;;8.33;;
20110;SDS011;10216;42.658;23.248;2023-03-23T15:40:48;8.67;;;7.73;;
20110;SDS011;10216;42.658;23.248;2023-03-23T15:43:17;9.53;;;8.13;;
20110;SDS011;10216;42.658;23.248;2023-03-23T15:45:54;8.17;;;7.37;;
20110;SDS011;10216;42.658;23.248;2023-03-23T15:48:20;21.60;;;7.67;;
20110;SDS011;10216;42.658;23.248;2023-03-23T15:50:46;9.40;;;7.33;;
20110;SDS011;10216;42.658;23.248;2023-03-23T15:53:19;8.43;;;7.17;;
20110;SDS011;10216;42.658;23.248;2023-03-23T15:55:44;11.60;;;8.27;;
20110;SDS011;10216;42.658;23.248;2023-03-23T15:58:10;9.10;;;8.20;;
20110;SDS011;10216;42.658;23.248;2023-03-23T16:00:36;9.60;;;8.60;;
20110;SDS011;10216;42.658;23.248;2023-03-23T16:03:03;10.20;;;7.57;;
20110;SDS011;10216;42.658;23.248;2023-03-23T16:05:29;13.07;;;7.10;;
20110;SDS011;10216;42.658;23.248;2023-03-23T16:07:54;7.47;;;6.77;;
20110;SDS011;10216;42.658;23.248;2023-03-23T16:10:20;8.90;;;6.70;;
20110;SDS011;10216;42.658;23.248;2023-03-23T16:12:46;8.27;;;7.33;;
20110;SDS011;10216;42.658;23.248;2023-03-23T16:15:12;8.60;;;7.20;;
20110;SDS011;10216;42.658;23.248;2023-03-23T16:17:38;12.17;;;8.27;;
20110;SDS011;10216;42.658;23.248;2023-03-23T16:20:16;11.53;;;8.03;;
20110;SDS011;10216;42.658;23.248;2023-03-23T16:22:44;13.00;;;8.80;;
20110;SDS011;10216;42.658;23.248;2023-03-23T16:25:09;10.77;;;7.90;;
20110;SDS011;10216;42.658;23.248;2023-03-23T16:27:35;11.67;;;8.73;;
20110;SDS011;10216;42.658;23.248;2023-03-23T16:30:01;14.20;;;9.47;;
20110;SDS011;10216;42.658;23.248;2023-03-23T16:32:27;15.87;;;10.40;;
20110;SDS011;10216;42.658;23.248;2023-03-23T16:34:52;17.87;;;11.20;;
20110;SDS011;10216;42.658;23.248;2023-03-23T16:37:18;13.60;;;9.47;;
20110;SDS011;10216;42.658;23.248;2023-03-23T16:39:43;11.20;;;7.40;;
20110;SDS011;10216;42.658;23.248;2023-03-23T16:42:08;9.73;;;6.83;;
20110;SDS011;10216;42.658;23.248;2023-03-23T16:44:33;7.93;;;6.30;;
20110;SDS011;10216;42.658;23.248;2023-03-23T16:46:59;8.33;;;6.50;;
20110;SDS011;10216;42.658;23.248;2023-03-23T16:49:24;8.57;;;6.80;;
20110;SDS011;10216;42.658;23.248;2023-03-23T16:51:49;6.67;;;5.27;;